Time;durP1;ratioP1;P1;durP2;ratioP2;P2;SDS_P1;SDS_P2;PMS_P1;PMS_P2;Temp;Humidity;BMP_temperature;BMP_pressure;BME280_temperature;BME280_humidity;BME280_pressure;Samples;Min_cycle;Max_cycle;Signal;HPM_P1;HPM_P2
2023/06/20 00:01:46;;;;;;;16.45;9.73;;;;;;;20.59;100.00;101091.72;5206861;28;20022;-70
2023/06/20 00:04:17;;;;;;;16.52;9.23;;;;;;;20.56;100.00;101083.97;5206734;28;20021;-70
2023/06/20 00:06:47;;;;;;;19.95;9.02;;;;;;;20.55;100.00;101085.88;5206284;28;20502;-71
2023/06/20 00:09:17;;;;;;;18.00;8.95;;;;;;;20.58;100.00;101090.88;5206537;28;20030;-71
2023/06/20 00:11:48;;;;;;;17.02;9.75;;;;;;;20.60;100.00;101088.75;5206337;28;20029;-71
2023/06/20 00:14:18;;;;;;;15.30;9.57;;;;;;;20.65;100.00;101086.19;5206832;28;20029;-71
2023/06/20 00:16:49;;;;;;;14.55;8.77;;;;;;;20.69;100.00;101092.84;5205650;28;20045;-71
2023/06/20 00:19:19;;;;;;;16.13;9.52;;;;;;;20.68;100.00;101093.06;5206559;28;20108;-71
2023/06/20 00:21:50;;;;;;;18.63;9.45;;;;;;;20.66;100.00;101089.72;5206225;28;20021;-71
2023/06/20 00:24:21;;;;;;;16.92;9.20;;;;;;;20.62;100.00;101081.16;5206508;28;20033;-71
2023/06/20 00:26:51;;;;;;;20.30;10.70;;;;;;;20.61;100.00;101078.69;5205553;28;20021;-70
2023/06/20 00:29:22;;;;;;;17.83;10.48;;;;;;;20.61;100.00;101073.22;5206668;28;20017;-70
2023/06/20 00:31:52;;;;;;;27.65;10.30;;;;;;;20.63;100.00;101077.41;5206217;28;20112;-70
2023/06/20 00:34:22;;;;;;;17.60;9.48;;;;;;;20.65;100.00;101077.16;5206275;28;20033;-71
2023/06/20 00:36:53;;;;;;;17.33;9.77;;;;;;;20.63;100.00;101071.97;5205213;28;20486;-70
2023/06/20 00:39:23;;;;;;;18.85;11.05;;;;;;;20.64;100.00;101072.78;5205161;28;20017;-70
2023/06/20 00:41:54;;;;;;;16.80;10.52;;;;;;;20.64;100.00;101076.34;5204864;28;20021;-71
2023/06/20 00:44:24;;;;;;;16.40;10.05;;;;;;;20.65;100.00;101075.28;5206260;28;20025;-70
2023/06/20 00:46:55;;;;;;;25.63;10.10;;;;;;;20.62;100.00;101070.25;5204971;28;20022;-71
2023/06/20 00:49:26;;;;;;;23.33;9.10;;;;;;;20.57;100.00;101070.13;5205837;28;20021;-71
2023/06/20 00:51:57;;;;;;;19.83;10.18;;;;;;;20.51;100.00;101079.22;5205990;28;20033;-71
2023/06/20 00:54:29;;;;;;;15.35;9.77;;;;;;;20.44;100.00;101072.97;5205881;28;20049;-70
2023/06/20 00:57:00;;;;;;;17.20;10.65;;;;;;;20.32;100.00;101072.88;5205167;28;20033;-71
2023/06/20 00:59:30;;;;;;;20.90;9.75;;;;;;;20.25;100.00;101072.13;5205238;28;20505;-71
2023/06/20 01:02:03;;;;;;;19.05;10.32;;;;;;;20.20;100.00;101071.94;5205198;28;20018;-71
2023/06/20 01:04:33;;;;;;;24.10;11.15;;;;;;;20.15;100.00;101067.19;5206103;28;20116;-70
2023/06/20 01:07:15;;;;;;;17.60;10.45;;;;;;;20.06;100.00;101067.69;5205284;28;20048;-71
2023/06/20 01:10:06;;;;;;;23.85;9.63;;;;;;;20.07;100.00;101062.00;5205847;28;20401;-71
2023/06/20 01:13:02;;;;;;;18.77;9.50;;;;;;;20.09;100.00;101059.06;5205629;28;20037;-71
2023/06/20 01:15:41;;;;;;;19.00;9.93;;;;;;;20.12;100.00;101064.06;5205472;28;20017;-70
2023/06/20 01:18:36;;;;;;;23.00;10.70;;;;;;;20.11;100.00;101049.59;5198746;28;20029;-70
2023/06/20 01:21:09;;;;;;;22.92;10.77;;;;;;;20.14;100.00;101056.50;5205975;28;20024;-70
2023/06/20 01:23:48;;;;;;;22.25;11.27;;;;;;;20.13;100.00;101043.94;5205434;28;20033;-71
2023/06/20 01:26:28;;;;;;;24.80;11.70;;;;;;;20.11;100.00;101041.44;5205341;28;20548;-71
2023/06/20 01:29:06;;;;;;;23.80;12.13;;;;;;;20.06;100.00;101051.34;5205171;28;20025;-71
2023/06/20 01:31:39;;;;;;;26.15;12.23;;;;;;;20.01;100.00;101037.56;5205373;28;20021;-70
2023/06/20 01:34:30;;;;;;;24.50;12.43;;;;;;;19.98;100.00;101040.72;5205586;28;20033;-70
2023/06/20 01:37:03;;;;;;;25.77;11.27;;;;;;;19.97;100.00;101036.34;5204398;28;20085;-70
2023/06/20 01:39:43;;;;;;;23.13;11.57;;;;;;;19.90;100.00;101044.56;5205396;28;20022;-71
2023/06/20 01:42:16;;;;;;;21.85;12.18;;;;;;;19.84;100.00;101045.47;5205339;28;20013;-71
2023/06/20 01:44:48;;;;;;;24.48;11.65;;;;;;;19.78;100.00;101046.34;5205336;28;20025;-71
2023/06/20 01:47:21;;;;;;;23.20;12.43;;;;;;;19.71;100.00;101045.56;5204315;28;20052;-71
2023/06/20 01:49:54;;;;;;;22.80;11.82;;;;;;;19.67;100.00;101042.44;5205106;28;20082;-70
2023/06/20 01:52:26;;;;;;;22.58;12.63;;;;;;;19.61;100.00;101040.63;5205274;28;20071;-71
2023/06/20 01:54:58;;;;;;;29.95;13.15;;;;;;;19.59;100.00;101048.16;5205183;28;20537;-70
2023/06/20 01:57:29;;;;;;;25.27;12.30;;;;;;;19.57;100.00;101050.25;5204358;28;20036;-70
2023/06/20 02:00:02;;;;;;;21.10;12.38;;;;;;;19.54;100.00;101045.25;5203648;28;20025;-70
2023/06/20 02:02:33;;;;;;;26.77;13.43;;;;;;;19.51;100.00;101035.63;5204829;28;20029;-70
2023/06/20 02:05:07;;;;;;;25.08;13.35;;;;;;;19.49;100.00;101040.47;5204959;28;20029;-71
2023/06/20 02:07:40;;;;;;;24.98;12.55;;;;;;;19.41;100.00;101040.72;5203989;28;20088;-70
2023/06/20 02:10:13;;;;;;;25.30;12.35;;;;;;;19.36;100.00;101043.28;5204709;28;20388;-70
2023/06/20 02:12:47;;;;;;;28.15;12.93;;;;;;;19.21;100.00;101038.13;5203904;28;20129;-70
2023/06/20 02:15:20;;;;;;;22.50;13.25;;;;;;;19.14;100.00;101046.34;5204458;28;20033;-70
2023/06/20 02:17:51;;;;;;;31.13;12.63;;;;;;;19.13;100.00;101039.25;5203831;28;20061;-70
2023/06/20 02:20:30;;;;;;;19.15;11.77;;;;;;;19.08;100.00;101038.25;5203733;28;20497;-70
2023/06/20 02:23:07;;;;;;;24.23;12.20;;;;;;;19.08;100.00;101030.09;5204111;28;20057;-70
2023/06/20 02:25:44;;;;;;;21.95;12.73;;;;;;;19.07;100.00;101023.78;5202966;28;20495;-70
2023/06/20 02:28:16;;;;;;;22.20;11.68;;;;;;;19.07;100.00;101025.66;5204217;28;20108;-70
2023/06/20 02:30:48;;;;;;;22.58;12.45;;;;;;;19.05;100.00;101020.47;5204525;28;20029;-70
2023/06/20 02:33:21;;;;;;;22.33;12.05;;;;;;;19.00;100.00;101014.84;5204023;28;20068;-71
2023/06/20 02:35:52;;;;;;;19.92;11.02;;;;;;;18.96;100.00;101019.03;5203722;28;20364;-70
2023/06/20 02:38:23;;;;;;;18.60;11.50;;;;;;;18.97;100.00;101023.41;5204191;28;20452;-70
2023/06/20 02:40:54;;;;;;;24.45;13.40;;;;;;;18.94;100.00;101023.03;5204121;28;20104;-70
2023/06/20 02:43:24;;;;;;;23.55;11.75;;;;;;;18.89;100.00;101016.38;5204061;28;20113;-71
2023/06/20 02:46:19;;;;;;;21.25;11.50;;;;;;;18.87;100.00;101025.78;5203134;28;20044;-71
2023/06/20 02:49:01;;;;;;;23.95;12.60;;;;;;;18.82;100.00;101034.56;5203928;28;20124;-70
2023/06/20 02:51:42;;;;;;;18.85;12.23;;;;;;;18.80;100.00;101036.69;5203815;28;20025;-70
2023/06/20 02:54:36;;;;;;;19.73;11.15;;;;;;;18.76;100.00;101043.59;5203365;28;20033;-71
2023/06/20 02:57:11;;;;;;;22.50;11.35;;;;;;;18.73;100.00;101037.78;5203014;28;20045;-70
2023/06/20 02:59:43;;;;;;;;;;;;;;;18.69;100.00;101048.22;5203961;28;20026;-71
2023/06/20 03:02:17;;;;;;;22.50;12.20;;;;;;;18.62;100.00;101044.66;5203414;28;19908;-71
2023/06/20 03:04:56;;;;;;;24.48;12.40;;;;;;;18.53;100.00;101049.50;5203234;28;20112;-71
2023/06/20 03:07:33;;;;;;;21.42;12.45;;;;;;;18.44;100.00;101063.53;5202683;28;20030;-71
2023/06/20 03:10:06;;;;;;;19.85;12.43;;;;;;;18.35;100.00;101066.47;5203219;28;20049;-70
2023/06/20 03:12:38;;;;;;;19.80;12.23;;;;;;;18.33;100.00;101074.00;5203120;28;20037;-71
2023/06/20 03:15:09;;;;;;;19.08;12.50;;;;;;;18.35;100.00;101065.63;5203112;28;20033;-71
2023/06/20 03:17:39;;;;;;;19.63;10.98;;;;;;;18.40;100.00;101070.44;5201938;28;20040;-71
2023/06/20 03:20:10;;;;;;;19.13;10.32;;;;;;;18.45;100.00;101062.50;5202854;28;20499;-70
2023/06/20 03:22:40;;;;;;;16.85;11.40;;;;;;;18.49;100.00;101061.84;5202675;28;20033;-71
2023/06/20 03:25:11;;;;;;;23.17;11.70;;;;;;;18.52;100.00;101060.56;5202374;28;20036;-71
2023/06/20 03:27:41;;;;;;;20.95;12.45;;;;;;;18.56;100.00;101061.81;5202397;28;20033;-71
2023/06/20 03:30:14;;;;;;;23.00;11.63;;;;;;;18.60;100.00;101060.34;5206320;28;20479;-70
2023/06/20 03:32:44;;;;;;;22.40;12.75;;;;;;;18.63;100.00;101060.75;5212674;28;20562;-71
2023/06/20 03:35:15;;;;;;;22.10;12.70;;;;;;;18.64;100.00;101062.44;5202718;28;20104;-70
2023/06/20 03:37:45;;;;;;;22.67;12.77;;;;;;;18.69;100.00;101064.53;5202352;28;20047;-70
2023/06/20 03:40:16;;;;;;;21.35;11.48;;;;;;;18.70;100.00;101065.38;5202765;28;20467;-70
2023/06/20 03:42:46;;;;;;;23.35;13.25;;;;;;;18.66;100.00;101073.06;5202588;28;20021;-70
2023/06/20 03:45:17;;;;;;;25.42;11.98;;;;;;;18.59;100.00;101069.56;5202804;28;20387;-71
2023/06/20 03:47:48;;;;;;;27.88;12.18;;;;;;;18.52;100.00;101076.88;5202045;28;20025;-71
2023/06/20 03:50:18;;;;;;;27.02;13.45;;;;;;;18.44;100.00;101083.38;5202625;28;20399;-72
2023/06/20 03:52:49;;;;;;;17.17;11.13;;;;;;;18.36;100.00;101081.72;5202487;28;20038;-70
2023/06/20 03:55:19;;;;;;;23.80;12.32;;;;;;;18.31;100.00;101083.41;5202928;28;20025;-70
2023/06/20 03:57:49;;;;;;;20.73;12.52;;;;;;;18.27;100.00;101072.16;5201810;28;20029;-70
2023/06/20 04:00:21;;;;;;;23.05;12.32;;;;;;;18.29;100.00;101063.78;5202718;28;20018;-71
2023/06/20 04:02:52;;;;;;;24.00;11.48;;;;;;;18.32;100.00;101058.75;5202244;28;20036;-71
2023/06/20 04:05:22;;;;;;;21.52;13.45;;;;;;;18.37;100.00;101056.25;5202662;28;20021;-71
2023/06/20 04:07:53;;;;;;;22.27;12.48;;;;;;;18.44;100.00;101053.50;5202052;28;20379;-70
2023/06/20 04:10:23;;;;;;;19.48;11.65;;;;;;;18.50;100.00;101052.66;5202442;28;20501;-70
2023/06/20 04:12:54;;;;;;;21.95;11.45;;;;;;;18.53;100.00;101052.22;5202424;28;20040;-70
2023/06/20 04:15:24;;;;;;;22.77;11.85;;;;;;;18.58;100.00;101052.44;5200865;28;20021;-70
2023/06/20 04:17:55;;;;;;;19.60;12.02;;;;;;;18.66;100.00;101054.06;5195089;28;20368;-71
2023/06/20 04:20:25;;;;;;;19.60;11.98;;;;;;;18.75;100.00;101055.53;5201956;28;20033;-71
2023/06/20 04:22:56;;;;;;;20.95;12.07;;;;;;;18.80;100.00;101049.44;5202259;28;20034;-70
2023/06/20 04:25:26;;;;;;;20.55;12.30;;;;;;;18.86;100.00;101029.53;5202280;28;20068;-71
2023/06/20 04:27:57;;;;;;;19.65;10.85;;;;;;;18.95;100.00;101028.25;5201465;28;20026;-71
2023/06/20 04:30:27;;;;;;;21.38;11.18;;;;;;;19.06;100.00;101026.72;5202386;28;20021;-71
2023/06/20 04:32:58;;;;;;;23.05;12.35;;;;;;;19.14;100.00;101024.59;5202424;28;20475;-71
2023/06/20 04:35:29;;;;;;;22.70;10.93;;;;;;;19.24;100.00;101034.16;5204093;28;20036;-71
2023/06/20 04:38:01;;;;;;;19.98;11.63;;;;;;;19.32;100.00;101025.72;5205735;28;20021;-71
2023/06/20 04:40:32;;;;;;;22.40;10.48;;;;;;;19.36;100.00;101010.63;5205814;28;20053;-71
2023/06/20 04:43:03;;;;;;;15.45;10.27;;;;;;;19.39;100.00;101016.47;5205846;28;20394;-71
2023/06/20 04:45:34;;;;;;;19.60;11.07;;;;;;;19.40;100.00;101009.97;5206008;28;20026;-71
2023/06/20 04:48:05;;;;;;;16.92;9.18;;;;;;;19.42;100.00;101009.75;5205475;28;20048;-70
2023/06/20 04:50:35;;;;;;;19.10;10.40;;;;;;;19.41;100.00;101019.81;5206084;28;20025;-71
2023/06/20 04:53:05;;;;;;;17.85;10.23;;;;;;;19.42;100.00;101020.63;5205461;28;20056;-71
2023/06/20 04:55:38;;;;;;;14.07;8.23;;;;;;;19.44;100.00;101018.53;5205826;28;20018;-71
2023/06/20 04:58:08;;;;;;;15.95;8.38;;;;;;;19.51;100.00;101016.59;5203982;28;20087;-71
2023/06/20 05:00:39;;;;;;;15.23;7.43;;;;;;;19.62;100.00;101023.22;5205756;28;20364;-71
2023/06/20 05:03:09;;;;;;;13.90;7.32;;;;;;;19.76;100.00;101019.34;5205686;28;20029;-71
2023/06/20 05:05:40;;;;;;;11.02;6.40;;;;;;;19.88;100.00;101016.72;5205314;28;20030;-71
2023/06/20 05:08:11;;;;;;;11.93;5.93;;;;;;;20.00;100.00;101027.72;5205589;28;20037;-71
2023/06/20 05:10:41;;;;;;;9.40;5.55;;;;;;;20.09;100.00;101035.41;5205231;28;20498;-71
2023/06/20 05:13:12;;;;;;;13.68;5.63;;;;;;;20.14;100.00;101042.91;5205778;28;20025;-71
2023/06/20 05:15:42;;;;;;;7.80;4.90;;;;;;;20.18;100.00;101038.63;5204898;28;20498;-71
2023/06/20 05:18:13;;;;;;;9.98;6.25;;;;;;;20.23;100.00;101038.81;5204855;28;20056;-71
2023/06/20 05:20:43;;;;;;;8.98;5.78;;;;;;;20.24;100.00;101045.94;5205356;28;20022;-71
2023/06/20 05:23:14;;;;;;;5.75;4.18;;;;;;;20.25;100.00;101058.50;5205193;28;20032;-71
2023/06/20 05:25:44;;;;;;;8.35;4.40;;;;;;;20.26;100.00;101048.44;5204879;28;20030;-71
2023/06/20 05:28:15;;;;;;;13.80;5.57;;;;;;;20.28;100.00;101049.88;5204815;28;20364;-71
2023/06/20 05:30:45;;;;;;;9.40;4.75;;;;;;;20.32;100.00;101044.78;5205692;28;20673;-71
2023/06/20 05:33:16;;;;;;;8.95;4.40;;;;;;;20.35;100.00;101037.00;5205266;28;20021;-71
2023/06/20 05:35:46;;;;;;;8.95;4.70;;;;;;;20.40;100.00;101030.88;5204761;28;20028;-71
2023/06/20 05:38:17;;;;;;;7.90;4.50;;;;;;;20.47;100.00;101036.28;5205187;28;20398;-71
2023/06/20 05:40:47;;;;;;;12.10;5.35;;;;;;;20.52;100.00;101037.25;5204888;28;20021;-71
2023/06/20 05:43:18;;;;;;;12.00;4.63;;;;;;;20.66;100.00;101032.50;5204924;28;20017;-71
2023/06/20 05:45:48;;;;;;;6.35;4.32;;;;;;;20.77;100.00;101034.44;5204490;28;20033;-71
2023/06/20 05:48:23;;;;;;;9.85;4.75;;;;;;;20.87;100.00;101026.56;5204300;28;20038;-71
2023/06/20 05:50:54;;;;;;;;;;;;;;;20.97;100.00;101019.72;5205414;28;20030;-71
2023/06/20 05:53:24;;;;;;;6.60;4.05;;;;;;;21.04;100.00;101017.75;5204644;28;19909;-71
2023/06/20 05:55:55;;;;;;;9.40;4.18;;;;;;;21.10;100.00;101019.56;5204207;28;20554;-71
2023/06/20 05:58:25;;;;;;;5.78;4.63;;;;;;;21.29;100.00;101009.41;5204713;28;20375;-71
2023/06/20 06:00:56;;;;;;;8.90;4.95;;;;;;;21.47;100.00;101009.34;5204614;28;20017;-71
2023/06/20 06:03:26;;;;;;;10.00;4.93;;;;;;;21.96;100.00;101013.56;5204656;28;20025;-71
2023/06/20 06:05:56;;;;;;;7.47;4.47;;;;;;;22.65;100.00;101027.41;5203730;28;20493;-71
2023/06/20 06:08:27;;;;;;;8.43;4.40;;;;;;;23.50;100.00;101033.97;5204471;28;20048;-72
2023/06/20 06:10:57;;;;;;;7.13;4.32;;;;;;;24.14;100.00;101028.16;5204165;28;20026;-71
2023/06/20 06:13:28;;;;;;;9.85;4.22;;;;;;;24.59;100.00;101027.16;5204392;28;20027;-72
2023/06/20 06:15:58;;;;;;;8.38;4.22;;;;;;;24.87;100.00;101024.22;5203598;28;20029;-72
2023/06/20 06:18:30;;;;;;;9.38;4.25;;;;;;;25.32;100.00;101020.31;5203771;28;20032;-72
2023/06/20 06:21:01;;;;;;;6.35;4.35;;;;;;;25.53;100.00;101022.16;5204532;28;20022;-71
2023/06/20 06:23:31;;;;;;;8.65;4.38;;;;;;;25.89;100.00;101014.22;5204291;28;20029;-72
2023/06/20 06:26:02;;;;;;;6.55;4.28;;;;;;;26.04;100.00;101019.81;5203672;28;20024;-72
2023/06/20 06:28:32;;;;;;;7.68;4.28;;;;;;;26.06;100.00;101009.41;5203850;28;20071;-72
2023/06/20 06:31:08;;;;;;;8.32;4.63;;;;;;;25.69;100.00;101014.03;5204133;28;20031;-72
2023/06/20 06:33:40;;;;;;;5.47;4.30;;;;;;;25.91;100.00;101006.56;5204259;28;20025;-72
2023/06/20 06:36:10;;;;;;;8.13;4.18;;;;;;;26.18;100.00;101011.13;5203634;28;20034;-72
2023/06/20 06:38:41;;;;;;;6.88;4.43;;;;;;;26.19;100.00;101010.03;5203742;28;20479;-72
2023/06/20 06:41:11;;;;;;;5.28;4.22;;;;;;;26.26;100.00;100999.63;5203480;28;20021;-72
2023/06/20 06:43:42;;;;;;;6.50;3.95;;;;;;;26.48;100.00;101004.97;5203879;28;20021;-72
2023/06/20 06:49:38;;;;;;;6.88;3.90;;;;;;;26.65;100.00;101010.25;5198897;28;20097;-70
2023/06/20 06:52:09;;;;;;;7.22;4.13;;;;;;;26.77;100.00;100992.44;5202435;28;20041;-69
2023/06/20 06:54:40;;;;;;;6.18;3.85;;;;;;;27.28;100.00;101002.75;5202239;28;20101;-69
2023/06/20 06:57:10;;;;;;;6.50;4.30;;;;;;;27.53;100.00;100994.50;5201877;28;20112;-69
2023/06/20 06:59:41;;;;;;;6.63;3.97;;;;;;;27.84;100.00;100997.25;5201709;28;20057;-70
2023/06/20 07:02:11;;;;;;;6.82;4.10;;;;;;;28.18;100.00;100988.38;5201817;28;20033;-70
2023/06/20 07:04:41;;;;;;;5.40;3.70;;;;;;;28.39;100.00;100995.50;5201823;28;20071;-70
2023/06/20 07:07:12;;;;;;;5.38;4.15;;;;;;;28.74;100.00;100993.69;5201311;28;20364;-70
2023/06/20 07:09:42;;;;;;;8.00;4.43;;;;;;;28.75;100.00;100989.81;5201562;28;20052;-69
2023/06/20 07:12:13;;;;;;;7.05;3.42;;;;;;;28.90;100.00;100995.25;5201543;28;20030;-70
2023/06/20 07:14:44;;;;;;;6.22;3.72;;;;;;;28.98;100.00;100986.41;5201682;28;20483;-70
2023/06/20 07:17:15;;;;;;;4.07;3.63;;;;;;;28.89;100.00;100990.84;5200915;28;20124;-70
2023/06/20 07:19:45;;;;;;;7.03;3.92;;;;;;;29.04;100.00;100990.78;5216676;28;20028;-70
2023/06/20 07:22:16;;;;;;;7.28;3.72;;;;;;;28.65;100.00;100990.69;5201413;28;20093;-70
2023/06/20 07:24:46;;;;;;;5.63;4.00;;;;;;;28.72;100.00;101002.25;5201474;28;20028;-70
2023/06/20 07:27:17;;;;;;;12.68;3.80;;;;;;;29.01;100.00;100999.63;5200717;28;20638;-70
2023/06/20 07:29:47;;;;;;;6.53;3.88;;;;;;;29.39;100.00;100991.63;5201143;28;20049;-70
2023/06/20 07:32:18;;;;;;;5.68;4.30;;;;;;;29.45;100.00;100995.16;5201769;28;20566;-70
2023/06/20 07:34:49;;;;;;;6.80;3.83;;;;;;;29.51;100.00;100996.78;5201578;28;20234;-70
2023/06/20 07:37:19;;;;;;;4.55;3.40;;;;;;;29.62;100.00;100996.44;5200732;28;20025;-70
2023/06/20 07:39:49;;;;;;;4.72;3.20;;;;;;;29.72;100.00;100995.53;5200968;28;20055;-70
2023/06/20 07:42:20;;;;;;;7.15;3.58;;;;;;;29.63;100.00;100997.28;5201832;28;20098;-71
2023/06/20 07:44:51;;;;;;;5.35;3.70;;;;;;;30.15;100.00;101001.19;5201549;28;20117;-70
2023/06/20 07:47:21;;;;;;;8.63;3.50;;;;;;;29.46;100.00;101003.16;5200731;28;20021;-70
2023/06/20 07:49:52;;;;;;;4.93;3.70;;;;;;;29.95;100.00;100993.91;5200313;28;20467;-70
2023/06/20 07:52:22;;;;;;;6.13;3.53;;;;;;;30.21;100.00;100990.88;5201367;28;20402;-70
2023/06/20 07:54:55;;;;;;;6.18;3.40;;;;;;;30.34;100.00;100990.19;5201738;28;20024;-70
2023/06/20 07:57:26;;;;;;;6.07;3.13;;;;;;;30.47;100.00;100997.75;5200889;28;20637;-71
2023/06/20 07:59:56;;;;;;;4.65;3.50;;;;;;;30.13;100.00;101000.66;5200944;28;20025;-71
2023/06/20 08:02:28;;;;;;;5.53;3.08;;;;;;;30.02;100.00;100999.94;5199961;28;20029;-70
2023/06/20 08:04:59;;;;;;;5.38;3.08;;;;;;;29.84;100.00;101003.44;5201547;28;20029;-70
2023/06/20 08:07:30;;;;;;;7.30;3.35;;;;;;;29.90;100.00;100991.19;5200759;28;20037;-70
2023/06/20 08:10:02;;;;;;;4.32;3.00;;;;;;;30.02;100.00;100997.16;5202051;28;20072;-70
2023/06/20 08:12:32;;;;;;;3.50;2.70;;;;;;;29.62;100.00;100998.34;5205182;28;20033;-70
2023/06/20 08:15:03;;;;;;;4.03;3.25;;;;;;;29.59;100.00;100997.00;5205139;28;20032;-70
2023/06/20 08:17:35;;;;;;;5.20;3.30;;;;;;;29.90;100.00;100992.00;5204511;28;20376;-71
2023/06/20 08:20:08;;;;;;;4.10;2.70;;;;;;;29.90;100.00;100993.94;5204839;28;20089;-70
2023/06/20 08:22:39;;;;;;;3.40;2.65;;;;;;;29.74;100.00;101001.59;5205212;28;20029;-70
2023/06/20 08:25:10;;;;;;;5.85;3.50;;;;;;;29.72;100.00;100997.44;5203855;28;20067;-70
2023/06/20 08:27:40;;;;;;;4.72;3.08;;;;;;;30.05;100.00;100987.44;5204381;28;20073;-70
2023/06/20 08:30:11;;;;;;;8.60;3.00;;;;;;;30.42;100.00;101000.59;5204570;28;20033;-70
2023/06/20 08:32:42;;;;;;;6.85;2.97;;;;;;;30.09;100.00;100997.63;5205333;28;20562;-71
2023/06/20 08:35:12;;;;;;;4.93;2.90;;;;;;;30.41;100.00;101002.53;5204822;28;20017;-70
2023/06/20 08:37:43;;;;;;;4.00;2.92;;;;;;;30.05;100.00;100999.31;5204141;28;20029;-70
2023/06/20 08:40:14;;;;;;;7.63;3.38;;;;;;;30.38;100.00;101002.31;5204390;28;20033;-70
2023/06/20 08:42:45;;;;;;;3.20;2.90;;;;;;;30.45;100.00;101002.78;5204962;28;20036;-70
2023/06/20 08:45:16;;;;;;;5.35;3.38;;;;;;;30.54;100.00;100992.69;5204598;28;20025;-70
2023/06/20 08:47:46;;;;;;;2.63;2.40;;;;;;;30.40;100.00;100991.78;5203810;28;20025;-70
2023/06/20 08:50:17;;;;;;;3.28;2.70;;;;;;;29.69;100.00;100985.03;5204154;28;20753;-70
2023/06/20 08:52:48;;;;;;;3.28;2.95;;;;;;;29.81;100.00;100982.69;5204602;28;20022;-70
2023/06/20 08:55:20;;;;;;;6.40;3.17;;;;;;;30.05;100.00;100985.50;5204491;28;20106;-70
2023/06/20 08:57:51;;;;;;;2.97;2.53;;;;;;;30.65;100.00;100985.91;5203958;28;20056;-70
2023/06/20 09:00:23;;;;;;;7.03;2.63;;;;;;;30.80;100.00;100984.09;5204242;28;20108;-70
2023/06/20 09:02:54;;;;;;;5.20;2.90;;;;;;;30.29;100.00;100996.59;5204200;28;20060;-70
2023/06/20 09:05:31;;;;;;;2.67;2.45;;;;;;;30.74;100.00;100993.59;5204190;28;20027;-70
2023/06/20 09:08:01;;;;;;;3.67;2.70;;;;;;;31.01;100.00;100990.97;5203994;28;20032;-70
2023/06/20 09:10:33;;;;;;;4.20;2.88;;;;;;;31.53;100.00;100983.53;5203820;28;20014;-71
2023/06/20 09:13:03;;;;;;;3.95;2.80;;;;;;;32.00;100.00;100978.00;5204064;28;20478;-71
2023/06/20 09:15:34;;;;;;;4.85;2.90;;;;;;;31.96;100.00;100975.00;5203522;28;20041;-71
2023/06/20 09:18:06;;;;;;;4.25;2.97;;;;;;;32.21;100.00;100982.81;5203406;28;20475;-70
2023/06/20 09:20:37;;;;;;;4.75;2.80;;;;;;;32.29;100.00;100984.06;5203512;28;20014;-71
2023/06/20 09:23:07;;;;;;;2.85;2.60;;;;;;;31.83;100.00;100981.34;5203425;28;20037;-70
2023/06/20 09:25:39;;;;;;;2.97;2.67;;;;;;;31.47;100.00;100981.94;5203499;28;20028;-70
2023/06/20 09:28:31;;;;;;;5.35;3.28;;;;;;;31.48;100.00;100980.84;5203562;28;20040;-71
2023/06/20 09:31:02;;;;;;;3.70;3.40;;;;;;;31.49;100.00;100985.25;5203664;28;20029;-71
2023/06/20 09:33:36;;;;;;;7.45;3.10;;;;;;;31.34;100.00;100979.97;5203843;28;20131;-71
2023/06/20 09:36:26;;;;;;;4.07;2.83;;;;;;;31.84;100.00;100980.22;5203170;28;20021;-70
2023/06/20 09:38:59;;;;;;;3.97;2.80;;;;;;;31.56;100.00;100974.59;5191636;28;20029;-71
2023/06/20 09:41:30;;;;;;;5.78;2.65;;;;;;;30.77;100.00;100971.63;5206783;28;20029;-71
2023/06/20 09:44:00;;;;;;;3.75;2.63;;;;;;;31.17;100.00;100964.66;5214246;28;20371;-71
2023/06/20 09:46:31;;;;;;;6.70;2.65;;;;;;;30.93;100.00;100963.97;5202746;28;20021;-71
2023/06/20 09:49:04;;;;;;;3.40;2.90;;;;;;;31.05;100.00;100961.53;5202744;28;20683;-70
2023/06/20 09:51:41;;;;;;;3.22;2.88;;;;;;;31.22;100.00;100955.44;5203442;28;20022;-71
2023/06/20 09:54:13;;;;;;;3.33;3.00;;;;;;;31.16;100.00;100963.03;5203582;28;20470;-70
2023/06/20 09:56:47;;;;;;;5.45;2.90;;;;;;;31.33;100.00;100956.97;5203052;28;20511;-70
2023/06/20 09:59:21;;;;;;;4.72;3.45;;;;;;;31.42;100.00;100960.69;5202399;28;20108;-71
2023/06/20 10:01:54;;;;;;;5.37;2.67;;;;;;;31.59;100.00;100960.13;5203268;28;20037;-70
2023/06/20 10:04:26;;;;;;;4.57;2.50;;;;;;;31.54;100.00;100960.22;5203231;28;20108;-71
2023/06/20 10:06:58;;;;;;;4.57;2.60;;;;;;;31.21;100.00;100954.63;5202815;28;20049;-71
2023/06/20 10:09:30;;;;;;;3.08;2.65;;;;;;;31.50;100.00;100953.63;5202409;28;20364;-70
2023/06/20 10:12:01;;;;;;;5.10;2.90;;;;;;;31.39;100.00;100953.00;5201860;28;20502;-71
2023/06/20 10:14:33;;;;;;;4.82;3.17;;;;;;;31.23;100.00;100943.25;5203272;28;20121;-71
2023/06/20 10:17:39;;;;;;;8.48;2.95;;;;;;;31.27;100.00;100944.31;5202562;28;20021;-71
2023/06/20 10:20:31;;;;;;;9.38;2.97;;;;;;;31.50;100.00;100937.00;5201880;28;20032;-71
2023/06/20 10:23:05;;;;;;;4.85;2.88;;;;;;;30.99;100.00;100934.22;5203105;28;20075;-71
2023/06/20 10:25:50;;;;;;;5.57;2.90;;;;;;;31.43;100.00;100942.13;5202570;28;20053;-71
2023/06/20 10:28:22;;;;;;;5.75;2.70;;;;;;;31.15;100.00;100938.38;5202108;28;20427;-71
2023/06/20 10:30:57;;;;;;;3.88;2.50;;;;;;;31.11;100.00;100938.16;5202696;28;20022;-70
2023/06/20 10:33:30;;;;;;;5.15;2.83;;;;;;;31.09;100.00;100932.13;5202395;28;20036;-71
2023/06/20 10:36:19;;;;;;;3.47;2.80;;;;;;;31.45;100.00;100928.78;5202103;28;20029;-71
2023/06/20 10:38:51;;;;;;;4.55;2.58;;;;;;;31.10;100.00;100919.91;5201842;28;20029;-71
2023/06/20 10:41:23;;;;;;;3.33;2.70;;;;;;;31.05;100.00;100922.75;5199859;28;20029;-70
2023/06/20 10:44:10;;;;;;;4.18;2.55;;;;;;;31.29;100.00;100919.09;5198046;28;20713;-71
2023/06/20 10:46:41;;;;;;;7.10;2.97;;;;;;;31.49;100.00;100920.66;5207336;28;20021;-70
2023/06/20 10:49:11;;;;;;;7.97;2.70;;;;;;;31.47;100.00;100909.88;5208054;28;20545;-71
2023/06/20 10:51:57;;;;;;;3.28;2.78;;;;;;;31.78;100.00;100901.81;5211789;28;20028;-71
2023/06/20 10:54:34;;;;;;;4.95;2.47;;;;;;;32.08;100.00;100905.97;5207632;28;20048;-71
2023/06/20 10:57:05;;;;;;;3.65;3.15;;;;;;;32.12;100.00;100909.72;5212247;28;20109;-71
2023/06/20 10:59:36;;;;;;;4.72;2.92;;;;;;;31.99;100.00;100907.00;5208106;28;20097;-72
2023/06/20 11:02:07;;;;;;;5.07;3.35;;;;;;;31.50;100.00;100891.81;5209455;28;20084;-70
2023/06/20 11:04:37;;;;;;;3.88;2.80;;;;;;;31.53;100.00;100883.72;5207108;28;20033;-70
2023/06/20 11:07:08;;;;;;;4.75;3.55;;;;;;;31.51;100.00;100888.72;5210683;28;20677;-70
2023/06/20 11:09:40;;;;;;;4.97;2.78;;;;;;;31.54;100.00;100890.09;5208018;28;20028;-71
2023/06/20 11:12:10;;;;;;;4.18;2.95;;;;;;;31.86;100.00;100887.25;5209858;28;20056;-71
2023/06/20 11:14:40;;;;;;;4.25;3.08;;;;;;;31.62;100.00;100883.81;5209627;28;20061;-71
2023/06/20 11:17:11;;;;;;;3.70;2.95;;;;;;;31.79;100.00;100880.44;5202138;28;20067;-71
2023/06/20 11:19:42;;;;;;;7.10;3.10;;;;;;;31.72;100.00;100887.19;5203212;28;20017;-71
2023/06/20 11:22:13;;;;;;;5.20;3.22;;;;;;;32.02;100.00;100889.72;5203373;28;20026;-71
2023/06/20 11:24:43;;;;;;;3.65;3.03;;;;;;;32.25;100.00;100891.44;5202861;28;20364;-71
2023/06/20 11:27:14;;;;;;;4.18;3.30;;;;;;;31.86;100.00;100891.97;5202702;28;20021;-71
2023/06/20 11:29:45;;;;;;;7.30;3.45;;;;;;;31.76;100.00;100890.19;5202773;28;20036;-71
2023/06/20 11:32:16;;;;;;;5.20;3.30;;;;;;;32.05;100.00;100889.91;5202698;28;20021;-71
2023/06/20 11:35:06;;;;;;;5.50;3.75;;;;;;;31.74;100.00;100875.00;5203211;28;20021;-70
2023/06/20 11:37:37;;;;;;;9.85;3.90;;;;;;;32.02;100.00;100889.72;5201914;28;20010;-70
2023/06/20 11:40:27;;;;;;;8.10;3.50;;;;;;;31.74;100.00;100888.88;5202008;28;20022;-71